Time;durP1;ratioP1;P1;durP2;ratioP2;P2;SDS_P1;SDS_P2;PMS_P1;PMS_P2;Temp;Humidity;BMP_temperature;BMP_pressure;BME280_temperature;BME280_humidity;BME280_pressure;Samples;Min_cycle;Max_cycle;Signal;HPM_P1;HPM_P2
2023/07/03 00:02:22;;;;;;;16.77;4.85;;;17.10;99.90;;;;;;4910066;29;20203;-82
2023/07/03 00:04:48;;;;;;;19.35;5.70;;;17.10;99.90;;;;;;4916744;29;20514;-82
2023/07/03 00:07:15;;;;;;;16.55;5.13;;;17.10;99.90;;;;;;4915524;29;20233;-81
2023/07/03 00:09:43;;;;;;;19.70;5.00;;;17.10;99.90;;;;;;4887225;29;20224;-83
2023/07/03 00:12:10;;;;;;;15.90;5.00;;;17.10;99.90;;;;;;4922817;29;20215;-82
2023/07/03 00:14:37;;;;;;;13.73;5.25;;;17.10;99.90;;;;;;4913418;29;20199;-82
2023/07/03 00:17:03;;;;;;;13.40;4.95;;;17.10;99.90;;;;;;4915699;29;20673;-81
2023/07/03 00:19:30;;;;;;;16.92;5.03;;;17.10;99.90;;;;;;4927090;29;20192;-81
2023/07/03 00:22:00;;;;;;;13.85;4.68;;;17.10;99.90;;;;;;4900141;29;20188;-81
2023/07/03 00:24:27;;;;;;;18.13;5.43;;;17.10;99.90;;;;;;4905335;29;20226;-81
2023/07/03 00:26:53;;;;;;;19.02;5.22;;;17.10;99.90;;;;;;4935963;29;20180;-81
2023/07/03 00:29:20;;;;;;;17.75;4.82;;;17.10;99.90;;;;;;4901852;29;20219;-81
2023/07/03 00:31:45;;;;;;;17.95;4.72;;;17.10;99.90;;;;;;4935719;29;20190;-82
2023/07/03 00:34:11;;;;;;;14.13;4.95;;;17.10;99.90;;;;;;4914930;29;20187;-81
2023/07/03 00:36:37;;;;;;;16.75;5.03;;;17.10;99.90;;;;;;4908965;29;20612;-80
2023/07/03 00:39:03;;;;;;;15.32;4.63;;;17.10;99.90;;;;;;4935242;29;20266;-81
2023/07/03 00:41:31;;;;;;;18.50;4.93;;;17.10;99.90;;;;;;4909965;29;20184;-80
2023/07/03 00:43:56;;;;;;;20.33;4.90;;;17.10;99.90;;;;;;4917600;29;20230;-81
2023/07/03 00:46:24;;;;;;;19.10;4.68;;;17.10;99.90;;;;;;4918672;29;20187;-80
2023/07/03 00:48:50;;;;;;;17.80;4.63;;;17.10;99.90;;;;;;4933141;29;20214;-82
2023/07/03 00:51:18;;;;;;;16.02;5.10;;;17.00;99.90;;;;;;4928912;29;20195;-82
2023/07/03 00:53:44;;;;;;;15.93;5.20;;;17.00;99.90;;;;;;4918590;29;20648;-81
2023/07/03 00:56:11;;;;;;;19.27;5.45;;;17.10;99.90;;;;;;4934075;29;20337;-81
2023/07/03 00:58:38;;;;;;;18.60;5.32;;;17.10;99.90;;;;;;4903580;29;20242;-81
2023/07/03 01:01:39;;;;;;;12.05;4.43;;;17.10;99.90;;;;;;4900763;29;20187;-81
2023/07/03 01:04:19;;;;;;;15.73;4.30;;;17.10;99.90;;;;;;4839417;29;20272;-81
2023/07/03 01:07:00;;;;;;;18.02;4.57;;;17.10;99.90;;;;;;4897114;29;20278;-81
2023/07/03 01:09:36;;;;;;;15.43;4.43;;;17.10;99.90;;;;;;4904670;29;20207;-81
2023/07/03 01:12:04;;;;;;;15.93;4.97;;;17.10;99.90;;;;;;4901121;29;20195;-81
2023/07/03 01:14:30;;;;;;;14.02;4.10;;;17.10;99.90;;;;;;4930732;29;20270;-81
2023/07/03 01:16:57;;;;;;;19.45;4.70;;;17.10;99.90;;;;;;4902005;29;20198;-81
2023/07/03 01:19:31;;;;;;;19.42;4.82;;;17.10;99.90;;;;;;4933194;29;20191;-82
2023/07/03 01:22:22;;;;;;;16.42;4.65;;;17.10;99.90;;;;;;4906104;29;20632;-81
2023/07/03 01:24:55;;;;;;;16.73;4.70;;;17.10;99.90;;;;;;4933897;29;20183;-83
2023/07/03 01:27:24;;;;;;;17.10;4.13;;;17.10;99.90;;;;;;4916692;29;20266;-81
2023/07/03 01:29:51;;;;;;;15.07;4.50;;;17.00;99.90;;;;;;4918130;29;20215;-83
2023/07/03 01:32:23;;;;;;;14.82;4.18;;;17.00;99.90;;;;;;4927290;29;20323;-81
2023/07/03 01:34:53;;;;;;;20.48;4.72;;;17.00;99.90;;;;;;4926014;29;20187;-81
2023/07/03 01:37:23;;;;;;;15.25;3.88;;;17.00;99.90;;;;;;4907972;29;20203;-82
2023/07/03 01:39:51;;;;;;;15.55;4.63;;;17.00;99.90;;;;;;4924026;29;20262;-82
2023/07/03 01:42:18;;;;;;;17.00;4.63;;;17.00;99.90;;;;;;4921363;29;20190;-83
2023/07/03 01:44:44;;;;;;;14.88;4.80;;;17.00;99.90;;;;;;4932913;29;20326;-81
2023/07/03 01:47:13;;;;;;;19.77;4.65;;;17.00;99.90;;;;;;4900801;29;20196;-83
2023/07/03 01:49:39;;;;;;;17.30;4.78;;;17.00;99.90;;;;;;4932277;29;20215;-83
2023/07/03 01:52:22;;;;;;;15.07;4.32;;;17.00;99.90;;;;;;4902891;29;20531;-83
2023/07/03 01:55:06;;;;;;;17.95;4.28;;;17.00;99.90;;;;;;4908944;29;20554;-81
2023/07/03 01:57:32;;;;;;;11.55;3.92;;;17.00;99.90;;;;;;4913866;29;20654;-81
2023/07/03 02:00:03;;;;;;;16.80;4.47;;;16.90;99.90;;;;;;4937811;29;20195;-81
2023/07/03 02:02:43;;;;;;;11.73;3.80;;;17.00;99.90;;;;;;4938841;29;20195;-82
2023/07/03 02:05:14;;;;;;;16.88;4.20;;;17.00;99.90;;;;;;4932056;29;20337;-82
2023/07/03 02:07:41;;;;;;;13.38;3.88;;;17.00;99.90;;;;;;4923274;29;20192;-81
2023/07/03 02:10:08;;;;;;;14.63;4.38;;;16.90;99.90;;;;;;4909542;29;20195;-81
2023/07/03 02:12:33;;;;;;;16.90;3.80;;;16.90;99.90;;;;;;4933950;29;20191;-81
2023/07/03 02:15:04;;;;;;;19.83;4.28;;;16.90;99.90;;;;;;4913914;29;20191;-84
2023/07/03 02:17:30;;;;;;;17.65;4.10;;;16.90;99.90;;;;;;4920922;29;20184;-82
2023/07/03 02:19:56;;;;;;;11.75;3.90;;;16.90;99.90;;;;;;4895520;29;20200;-81
2023/07/03 02:22:22;;;;;;;16.27;3.72;;;16.90;99.90;;;;;;4912429;29;20203;-81
2023/07/03 02:24:48;;;;;;;14.82;3.90;;;16.90;99.90;;;;;;4903742;29;20644;-82
2023/07/03 02:27:14;;;;;;;14.52;3.90;;;16.80;99.90;;;;;;4920982;29;20191;-81
2023/07/03 02:29:40;;;;;;;14.45;3.65;;;16.80;99.90;;;;;;4920233;29;20226;-82
2023/07/03 02:32:09;;;;;;;11.98;3.50;;;16.80;99.90;;;;;;4934440;29;20195;-81
2023/07/03 02:34:35;;;;;;;14.73;3.50;;;16.80;99.90;;;;;;4917140;29;20192;-82
2023/07/03 02:37:01;;;;;;;13.30;3.50;;;16.80;99.90;;;;;;4927882;29;20195;-82
2023/07/03 02:39:27;;;;;;;15.65;3.53;;;16.80;99.90;;;;;;4913927;29;20184;-81
2023/07/03 02:41:53;;;;;;;11.70;3.10;;;16.70;99.90;;;;;;4921559;29;20275;-84
2023/07/03 02:44:19;;;;;;;11.05;3.20;;;16.70;99.90;;;;;;4929931;29;20539;-82
2023/07/03 02:46:46;;;;;;;17.77;3.33;;;16.60;99.90;;;;;;4924274;29;20212;-83
2023/07/03 02:49:14;;;;;;;12.98;3.17;;;16.60;99.90;;;;;;4911784;29;20211;-83
2023/07/03 02:51:42;;;;;;;10.77;3.05;;;16.50;99.90;;;;;;4920838;29;20195;-82
2023/07/03 02:54:10;;;;;;;9.02;2.80;;;16.50;99.90;;;;;;4904081;29;20191;-82
2023/07/03 02:56:37;;;;;;;11.05;3.05;;;16.50;99.90;;;;;;4935211;29;20207;-84
2023/07/03 02:59:03;;;;;;;12.32;3.20;;;16.50;99.90;;;;;;4917181;29;20226;-82
2023/07/03 03:01:33;;;;;;;14.13;3.00;;;16.40;99.90;;;;;;4920205;29;20183;-82
2023/07/03 03:04:00;;;;;;;14.00;3.30;;;16.40;99.90;;;;;;4919538;29;20191;-83
2023/07/03 03:06:26;;;;;;;8.98;2.88;;;16.40;99.90;;;;;;4919131;29;20195;-81
2023/07/03 03:08:52;;;;;;;9.18;2.65;;;16.40;99.90;;;;;;4904976;29;20211;-81
2023/07/03 03:11:18;;;;;;;7.82;2.83;;;16.40;99.90;;;;;;4898435;29;20203;-82
2023/07/03 03:13:48;;;;;;;11.77;2.63;;;16.40;99.90;;;;;;4904613;29;20211;-81
2023/07/03 03:16:15;;;;;;;9.95;2.78;;;16.30;99.90;;;;;;4890008;29;20202;-84
2023/07/03 03:18:41;;;;;;;10.23;2.55;;;16.30;99.90;;;;;;4918039;29;20187;-83
2023/07/03 03:21:07;;;;;;;9.10;2.45;;;16.30;99.90;;;;;;4888433;29;20191;-81
2023/07/03 03:23:33;;;;;;;9.82;2.67;;;16.30;99.90;;;;;;4935499;29;20518;-83
2023/07/03 03:25:59;;;;;;;14.30;2.75;;;16.30;99.90;;;;;;4936331;29;20211;-83
2023/07/03 03:28:24;;;;;;;12.38;2.97;;;16.30;99.90;;;;;;4902747;29;20204;-82
2023/07/03 03:30:50;;;;;;;12.88;2.85;;;16.20;99.90;;;;;;4932059;29;20195;-82
2023/07/03 03:33:16;;;;;;;10.90;4.32;;;16.20;99.90;;;;;;4903492;29;20202;-82
2023/07/03 03:35:42;;;;;;;14.05;3.90;;;16.20;99.90;;;;;;4895193;29;20282;-83
2023/07/03 03:38:08;;;;;;;17.40;6.30;;;16.20;99.90;;;;;;4885563;29;20324;-82
2023/07/03 03:40:35;;;;;;;14.95;6.53;;;16.20;99.90;;;;;;4898855;29;20187;-83
2023/07/03 03:43:00;;;;;;;16.23;8.38;;;16.10;99.90;;;;;;4918119;29;20198;-82
2023/07/03 03:45:26;;;;;;;12.25;2.67;;;16.10;99.90;;;;;;4921484;29;20239;-83
2023/07/03 03:47:52;;;;;;;12.45;2.30;;;16.10;99.90;;;;;;4898549;29;20192;-82
2023/07/03 03:50:18;;;;;;;13.70;2.75;;;16.10;99.90;;;;;;4909798;29;20187;-81
2023/07/03 03:52:44;;;;;;;16.40;2.90;;;16.10;99.90;;;;;;4919482;29;20175;-81
2023/07/03 03:55:11;;;;;;;14.57;2.65;;;16.10;99.90;;;;;;4909417;29;20593;-80
2023/07/03 03:57:36;;;;;;;11.38;2.67;;;16.10;99.90;;;;;;4903636;29;20694;-83
2023/07/03 04:00:06;;;;;;;13.45;2.95;;;16.00;99.90;;;;;;4933692;29;20200;-81
2023/07/03 04:02:38;;;;;;;16.88;3.22;;;16.00;99.90;;;;;;4936250;29;20273;-81
2023/07/03 04:05:05;;;;;;;13.45;2.80;;;16.00;99.90;;;;;;4931275;29;20266;-82
2023/07/03 04:07:30;;;;;;;12.85;2.67;;;16.00;99.90;;;;;;4932417;29;20252;-82
2023/07/03 04:09:56;;;;;;;9.90;2.70;;;16.00;99.90;;;;;;4925548;29;20211;-82
2023/07/03 04:12:22;;;;;;;9.85;2.33;;;16.00;99.90;;;;;;4914714;29;20271;-83
2023/07/03 04:14:48;;;;;;;12.40;2.50;;;16.00;99.90;;;;;;4897333;29;20558;-83
2023/07/03 04:17:13;;;;;;;13.85;2.88;;;15.90;99.90;;;;;;4927125;29;20192;-83
2023/07/03 04:19:39;;;;;;;14.05;2.58;;;15.90;99.90;;;;;;4911033;29;20195;-83
2023/07/03 04:22:05;;;;;;;12.75;2.95;;;15.90;99.90;;;;;;4909011;29;20556;-82
2023/07/03 04:24:31;;;;;;;14.38;2.88;;;15.90;99.90;;;;;;4918789;29;20195;-84
2023/07/03 04:26:59;;;;;;;10.25;2.40;;;15.90;99.90;;;;;;4925886;29;20199;-83
2023/07/03 04:29:24;;;;;;;9.93;2.45;;;15.90;99.90;;;;;;4894544;29;20638;-83
2023/07/03 04:31:50;;;;;;;9.77;2.70;;;15.90;99.90;;;;;;4894957;29;20586;-83
2023/07/03 04:34:16;;;;;;;13.93;2.80;;;15.90;99.90;;;;;;4918205;29;20215;-83
2023/07/03 04:36:42;;;;;;;19.45;2.90;;;15.90;99.90;;;;;;4890083;29;20208;-81
2023/07/03 04:39:07;;;;;;;18.20;2.65;;;15.90;99.90;;;;;;4917473;29;20553;-81
2023/07/03 04:41:33;;;;;;;12.65;2.85;;;15.90;99.90;;;;;;4917430;29;20258;-82
2023/07/03 04:44:00;;;;;;;11.55;2.38;;;15.90;99.90;;;;;;4916458;29;20202;-82
2023/07/03 04:46:27;;;;;;;12.38;2.95;;;15.90;99.90;;;;;;4910196;29;20243;-82
2023/07/03 04:49:00;;;;;;;13.25;2.78;;;15.90;99.90;;;;;;4917501;29;20238;-83
2023/07/03 04:51:30;;;;;;;15.15;2.83;;;15.90;99.90;;;;;;4896223;29;20270;-83
2023/07/03 04:54:00;;;;;;;15.82;2.55;;;15.90;99.90;;;;;;4905774;29;20186;-84
2023/07/03 04:56:27;;;;;;;13.40;3.00;;;15.90;99.90;;;;;;4922836;29;20586;-85
2023/07/03 04:58:53;;;;;;;16.25;2.70;;;15.90;99.90;;;;;;4922216;29;20182;-82
2023/07/03 05:01:19;;;;;;;15.23;2.83;;;16.00;99.90;;;;;;4924606;29;20183;-82
2023/07/03 05:03:44;;;;;;;11.25;2.47;;;15.90;99.90;;;;;;4920217;29;20657;-83
2023/07/03 05:06:10;;;;;;;15.30;2.55;;;16.00;99.90;;;;;;4908495;29;20242;-81
2023/07/03 05:08:36;;;;;;;14.00;3.35;;;16.00;99.90;;;;;;4924766;29;20621;-83
2023/07/03 05:11:02;;;;;;;14.00;2.55;;;16.00;99.90;;;;;;4904432;29;20195;-83
2023/07/03 05:13:28;;;;;;;12.63;2.60;;;16.10;99.90;;;;;;4922577;29;20557;-83
2023/07/03 05:15:54;;;;;;;13.73;2.38;;;16.10;99.90;;;;;;4903546;29;20622;-83
2023/07/03 05:18:21;;;;;;;9.73;2.95;;;16.10;99.90;;;;;;4941804;29;20193;-82
2023/07/03 05:20:48;;;;;;;10.05;2.55;;;16.10;99.90;;;;;;4924204;29;20187;-83
2023/07/03 05:23:15;;;;;;;11.45;2.63;;;16.20;99.90;;;;;;4916058;29;20187;-83
2023/07/03 05:25:46;;;;;;;11.05;2.13;;;16.30;99.90;;;;;;4923376;29;20201;-84
2023/07/03 05:28:12;;;;;;;13.60;2.50;;;16.30;99.90;;;;;;4925042;29;20261;-83
2023/07/03 05:30:37;;;;;;;13.65;2.35;;;16.40;99.90;;;;;;4929301;29;20652;-82
2023/07/03 05:33:03;;;;;;;10.80;2.70;;;16.40;99.90;;;;;;4938059;29;20199;-83
2023/07/03 05:35:29;;;;;;;12.43;2.17;;;16.50;99.90;;;;;;4924237;29;20202;-82
2023/07/03 05:37:56;;;;;;;17.20;2.50;;;16.50;99.90;;;;;;4906685;29;20187;-82
2023/07/03 05:40:22;;;;;;;13.82;2.83;;;16.60;99.90;;;;;;4920082;29;20195;-85
2023/07/03 05:42:47;;;;;;;13.52;2.53;;;16.60;99.90;;;;;;4925684;29;20390;-82
2023/07/03 05:45:13;;;;;;;14.63;2.70;;;16.70;99.90;;;;;;4911383;29;20355;-83
2023/07/03 05:47:39;;;;;;;17.10;2.80;;;16.70;99.90;;;;;;4887362;29;20714;-79
2023/07/03 05:50:05;;;;;;;14.15;2.58;;;16.70;99.90;;;;;;4907938;29;20218;-81
2023/07/03 05:52:33;;;;;;;11.45;2.53;;;16.70;99.90;;;;;;4908642;29;20202;-83
2023/07/03 05:54:59;;;;;;;10.57;2.25;;;16.70;99.90;;;;;;4941462;29;20195;-82
2023/07/03 05:57:25;;;;;;;10.35;2.30;;;16.70;99.90;;;;;;4924729;29;20205;-83
2023/07/03 05:59:51;;;;;;;11.57;2.40;;;16.70;99.90;;;;;;4904693;29;20275;-84
2023/07/03 06:02:17;;;;;;;16.98;2.83;;;16.60;99.90;;;;;;4923462;29;20187;-85
2023/07/03 06:04:43;;;;;;;10.52;2.60;;;16.60;99.90;;;;;;4906665;29;20192;-85
2023/07/03 06:07:09;;;;;;;17.55;3.08;;;16.60;99.90;;;;;;4919223;29;20661;-83
2023/07/03 06:09:35;;;;;;;13.07;2.45;;;16.60;99.90;;;;;;4905048;29;20222;-83
2023/07/03 06:12:02;;;;;;;9.77;2.40;;;16.60;99.90;;;;;;4921839;29;20242;-84
2023/07/03 06:14:30;;;;;;;10.48;2.33;;;16.60;99.90;;;;;;4938185;29;20211;-83
2023/07/03 06:16:57;;;;;;;10.77;2.53;;;16.70;99.90;;;;;;4918352;29;20320;-85
2023/07/03 06:19:25;;;;;;;8.65;2.47;;;16.70;99.90;;;;;;4926921;29;20274;-87
2023/07/03 06:21:50;;;;;;;8.88;2.33;;;16.70;99.90;;;;;;4930943;29;20555;-84
2023/07/03 06:24:17;;;;;;;14.27;2.70;;;16.80;99.90;;;;;;4910476;29;20202;-85
2023/07/03 06:26:43;;;;;;;13.35;2.72;;;16.80;99.90;;;;;;4934472;29;20968;-81
2023/07/03 06:29:10;;;;;;;18.80;2.88;;;16.90;99.90;;;;;;4916059;29;20214;-82
2023/07/03 06:31:36;;;;;;;20.35;2.92;;;17.00;99.90;;;;;;4937468;29;20195;-83
2023/07/03 06:34:03;;;;;;;14.90;2.70;;;17.10;99.90;;;;;;4919116;29;20307;-83
2023/07/03 06:36:31;;;;;;;8.80;2.38;;;17.20;99.90;;;;;;4915927;29;20184;-84
2023/07/03 06:38:59;;;;;;;12.32;2.67;;;17.30;99.90;;;;;;4919013;29;20176;-84
2023/07/03 06:41:28;;;;;;;15.70;2.90;;;17.30;99.90;;;;;;4914811;29;20217;-84
2023/07/03 06:43:55;;;;;;;9.50;2.05;;;17.40;99.90;;;;;;4933243;29;20187;-83
2023/07/03 06:46:21;;;;;;;12.73;2.60;;;17.40;99.90;;;;;;4935214;29;20191;-83
2023/07/03 06:48:47;;;;;;;12.88;2.35;;;17.50;99.90;;;;;;4937274;29;20215;-82
2023/07/03 06:51:13;;;;;;;16.38;2.60;;;17.50;99.90;;;;;;4934673;29;20200;-83
2023/07/03 06:53:40;;;;;;;8.27;1.98;;;17.50;99.90;;;;;;4915399;29;20266;-84
2023/07/03 06:56:07;;;;;;;20.80;3.20;;;17.40;99.90;;;;;;4930547;29;20540;-84
2023/07/03 06:58:33;;;;;;;13.60;2.70;;;17.40;99.90;;;;;;4934545;29;20203;-83
2023/07/03 07:01:10;;;;;;;15.00;2.70;;;17.30;99.90;;;;;;4930937;29;20203;-84
2023/07/03 07:03:36;;;;;;;10.77;2.20;;;17.20;99.90;;;;;;4919039;29;20282;-83
2023/07/03 07:06:09;;;;;;;11.13;2.65;;;17.10;99.90;;;;;;4934878;29;20214;-82
2023/07/03 07:08:35;;;;;;;10.98;2.60;;;17.00;99.90;;;;;;4903054;29;20215;-84
2023/07/03 07:11:00;;;;;;;13.93;2.50;;;16.90;99.90;;;;;;4927200;29;20326;-82
2023/07/03 07:13:26;;;;;;;13.02;2.47;;;16.90;99.90;;;;;;4886236;29;20184;-83
2023/07/03 07:15:52;;;;;;;22.38;2.40;;;16.80;99.90;;;;;;4888966;29;20557;-83
2023/07/03 07:18:18;;;;;;;10.52;2.42;;;16.80;99.90;;;;;;4900780;29;20187;-84
2023/07/03 07:20:43;;;;;;;11.43;2.42;;;16.70;99.90;;;;;;4914884;29;20187;-80
2023/07/03 07:23:09;;;;;;;9.27;2.20;;;16.70;99.90;;;;;;4919481;29;20183;-81
2023/07/03 07:25:35;;;;;;;8.50;2.33;;;16.70;99.90;;;;;;4919696;29;20276;-83
2023/07/03 07:28:02;;;;;;;12.07;2.65;;;16.70;99.90;;;;;;4918672;29;20192;-83
2023/07/03 07:30:27;;;;;;;9.45;2.17;;;16.80;99.90;;;;;;4903528;29;20203;-83
2023/07/03 07:32:53;;;;;;;13.65;2.58;;;16.80;99.90;;;;;;4885827;29;20195;-83
2023/07/03 07:35:19;;;;;;;9.13;2.17;;;16.90;99.90;;;;;;4926749;29;20673;-83
2023/07/03 07:37:45;;;;;;;10.40;2.30;;;16.90;99.90;;;;;;4932865;29;20191;-83
2023/07/03 07:40:11;;;;;;;9.05;2.05;;;16.90;99.90;;;;;;4926625;29;20282;-80
2023/07/03 07:42:38;;;;;;;12.02;2.58;;;16.90;99.90;;;;;;4936142;29;20175;-83
2023/07/03 07:45:09;;;;;;;9.30;2.50;;;17.00;99.90;;;;;;4919713;29;20230;-82
2023/07/03 07:47:34;;;;;;;9.55;2.08;;;17.00;99.90;;;;;;4936395;29;20238;-86
2023/07/03 07:50:00;;;;;;;10.30;2.28;;;17.00;99.90;;;;;;4919294;29;20219;-84
2023/07/03 07:52:26;;;;;;;12.45;2.53;;;17.10;99.90;;;;;;4913153;29;20644;-84
2023/07/03 07:54:55;;;;;;;9.00;2.10;;;17.10;99.90;;;;;;4937473;29;20290;-84
2023/07/03 07:57:22;;;;;;;8.57;2.65;;;17.20;99.90;;;;;;4905091;29;20605;-84
2023/07/03 07:59:47;;;;;;;11.43;2.80;;;17.20;99.90;;;;;;4921649;29;20269;-82
2023/07/03 08:02:13;;;;;;;10.60;2.60;;;17.30;99.90;;;;;;4930625;29;20557;-82
2023/07/03 08:04:39;;;;;;;10.40;2.00;;;17.40;99.90;;;;;;4904567;29;20206;-83
2023/07/03 08:07:05;;;;;;;11.55;2.22;;;17.40;99.90;;;;;;4903318;29;20553;-82
2023/07/03 08:09:31;;;;;;;6.63;2.13;;;17.50;99.90;;;;;;4903681;29;20218;-81
2023/07/03 08:11:56;;;;;;;12.45;2.30;;;17.50;99.90;;;;;;4900737;29;20191;-84
2023/07/03 08:14:22;;;;;;;11.98;2.38;;;17.60;99.90;;;;;;4933382;29;20188;-83
2023/07/03 08:16:48;;;;;;;8.20;2.53;;;17.60;99.90;;;;;;4918916;29;20644;-82
2023/07/03 08:19:14;;;;;;;8.23;2.20;;;17.80;99.90;;;;;;4919479;29;20195;-83
2023/07/03 08:21:40;;;;;;;10.32;2.15;;;17.80;99.90;;;;;;4906468;29;20201;-85
2023/07/03 08:24:05;;;;;;;11.73;2.00;;;17.90;99.90;;;;;;4935698;29;20845;-84
2023/07/03 08:26:31;;;;;;;8.02;1.80;;;18.10;99.90;;;;;;4916998;29;20214;-83
2023/07/03 08:28:57;;;;;;;8.00;1.65;;;18.20;99.90;;;;;;4913021;29;20229;-83
2023/07/03 08:31:23;;;;;;;7.72;1.60;;;18.30;99.90;;;;;;4884577;29;20671;-83
2023/07/03 08:33:51;;;;;;;6.00;1.45;;;18.50;99.90;;;;;;4904701;29;20220;-82
2023/07/03 08:36:17;;;;;;;7.60;1.60;;;18.60;99.90;;;;;;4932275;29;20187;-83
2023/07/03 08:38:43;;;;;;;6.30;1.65;;;18.70;99.90;;;;;;4897543;29;20678;-84
2023/07/03 08:41:13;;;;;;;8.52;1.98;;;18.80;99.90;;;;;;4930442;29;20561;-83
2023/07/03 08:43:46;;;;;;;10.57;1.90;;;18.90;99.90;;;;;;4920336;29;20187;-84
2023/07/03 08:46:18;;;;;;;4.60;1.55;;;19.10;99.90;;;;;;4936110;29;20176;-83
2023/07/03 08:48:45;;;;;;;7.90;1.75;;;19.20;99.90;;;;;;4930060;29;20215;-85
2023/07/03 08:51:15;;;;;;;8.80;1.83;;;19.30;99.90;;;;;;4915139;29;20656;-84
2023/07/03 08:53:43;;;;;;;4.30;1.52;;;19.40;99.90;;;;;;4907036;29;20199;-83
2023/07/03 08:56:26;;;;;;;5.45;1.45;;;19.50;99.90;;;;;;4933827;29;20188;-82
2023/07/03 08:58:54;;;;;;;7.57;1.92;;;19.60;99.90;;;;;;4933710;29;20183;-84
2023/07/03 09:01:26;;;;;;;11.35;1.83;;;19.60;99.90;;;;;;4917053;29;20215;-84
2023/07/03 09:04:16;;;;;;;7.78;2.00;;;19.60;99.90;;;;;;4916486;29;20286;-82
2023/07/03 09:07:01;;;;;;;8.15;1.77;;;19.60;99.90;;;;;;4914432;29;20192;-83
2023/07/03 09:09:30;;;;;;;9.07;1.73;;;19.50;99.90;;;;;;4931095;29;20219;-89
2023/07/03 09:12:10;;;;;;;7.75;1.42;;;19.40;99.90;;;;;;4916433;29;20547;-88
2023/07/03 09:14:43;;;;;;;6.95;1.92;;;19.30;99.90;;;;;;4902888;29;20261;-90
2023/07/03 09:17:11;;;;;;;5.63;1.60;;;19.10;99.90;;;;;;4914599;29;20274;-89
2023/07/03 09:19:42;;;;;;;6.20;1.45;;;18.90;99.90;;;;;;4919190;29;20203;-90
2023/07/03 09:22:25;;;;;;;4.70;1.55;;;18.80;99.90;;;;;;4914625;29;20215;-87
2023/07/03 09:24:55;;;;;;;11.65;1.70;;;18.60;99.90;;;;;;4932236;29;20191;-88
2023/07/03 09:27:23;;;;;;;7.03;1.70;;;18.50;99.90;;;;;;4915026;29;20585;-87
2023/07/03 09:29:49;;;;;;;10.27;2.10;;;18.50;99.90;;;;;;4927859;29;20218;-87
2023/07/03 09:32:30;;;;;;;6.95;1.95;;;18.50;99.90;;;;;;4916408;29;20202;-87
2023/07/03 09:35:16;;;;;;;8.10;1.90;;;18.50;99.90;;;;;;4926606;29;20163;-92
2023/07/03 09:37:49;;;;;;;6.80;1.88;;;18.50;99.90;;;;;;4937710;29;20199;-91
2023/07/03 09:40:26;;;;;;;6.30;1.63;;;18.50;99.90;;;;;;4920967;29;20199;-86
2023/07/03 09:42:53;;;;;;;12.18;2.47;;;18.50;99.90;;;;;;4920545;29;20327;-86
2023/07/03 09:45:28;;;;;;;8.05;2.50;;;18.50;99.90;;;;;;4919938;29;20219;-85
2023/07/03 09:47:57;;;;;;;9.00;2.13;;;18.50;99.90;;;;;;4907331;29;20188;-87
2023/07/03 09:50:49;;;;;;;10.38;1.92;;;18.50;99.90;;;;;;4902171;29;20200;-88
2023/07/03 09:53:19;;;;;;;8.82;2.17;;;18.50;99.90;;;;;;4901874;29;20364;-89
2023/07/03 09:55:54;;;;;;;10.27;1.90;;;18.50;99.90;;;;;;4924163;29;20203;-86
2023/07/03 09:58:23;;;;;;;9.00;1.75;;;18.40;99.90;;;;;;4904363;29;20214;-85
2023/07/03 10:00:52;;;;;;;11.93;2.33;;;18.40;99.90;;;;;;4923921;29;20188;-85
2023/07/03 10:03:29;;;;;;;8.30;2.10;;;18.40;99.90;;;;;;4913562;29;20204;-87
2023/07/03 10:05:57;;;;;;;7.15;1.83;;;18.40;99.90;;;;;;4933752;29;20548;-90
2023/07/03 10:08:27;;;;;;;6.88;2.03;;;18.40;99.90;;;;;;4931359;29;20319;-90
2023/07/03 10:10:58;;;;;;;4.10;1.70;;;18.30;99.90;;;;;;4929173;29;20196;-86
2023/07/03 10:13:29;;;;;;;6.90;1.67;;;18.30;99.90;;;;;;4918400;29;20287;-88
2023/07/03 10:15:59;;;;;;;4.00;1.55;;;18.20;99.90;;;;;;4904611;29;20492;-87
2023/07/03 10:18:32;;;;;;;8.77;2.00;;;18.20;99.90;;;;;;4917859;29;20185;-86
2023/07/03 10:21:02;;;;;;;7.55;1.73;;;18.10;99.90;;;;;;4923308;29;20223;-88
2023/07/03 10:23:32;;;;;;;3.85;1.27;;;18.00;99.90;;;;;;4929066;29;20256;-86
2023/07/03 10:26:18;;;;;;;5.68;1.50;;;17.90;99.90;;;;;;4913139;29;20177;-86
2023/07/03 10:29:07;;;;;;;3.28;1.25;;;17.80;99.90;;;;;;4906855;29;20977;-86
2023/07/03 10:31:54;;;;;;;4.93;1.35;;;17.70;99.90;;;;;;4892968;29;20225;-85
2023/07/03 10:34:38;;;;;;;4.20;1.42;;;17.60;99.90;;;;;;4885730;29;20173;-87
2023/07/03 10:37:06;;;;;;;2.83;1.35;;;17.60;99.90;;;;;;4873842;29;20186;-89
2023/07/03 10:39:44;;;;;;;4.70;1.60;;;17.70;99.90;;;;;;4867001;29;20194;-87
2023/07/03 10:42:32;;;;;;;8.93;1.75;;;17.70;99.90;;;;;;4859595;29;20222;-86
2023/07/03 10:45:06;;;;;;;5.88;1.67;;;17.70;99.90;;;;;;4873990;29;20235;-85
2023/07/03 10:47:56;;;;;;;7.13;2.00;;;17.80;99.90;;;;;;4879175;29;20189;-89
2023/07/03 10:51:01;;;;;;;9.95;2.38;;;17.90;99.90;;;;;;4878616;29;20341;-82
2023/07/03 10:53:51;;;;;;;7.70;1.60;;;17.90;99.90;;;;;;4876728;29;20241;-82
2023/07/03 10:56:41;;;;;;;5.72;1.63;;;17.90;99.90;;;;;;4881081;29;20187;-84
2023/07/03 10:59:36;;;;;;;5.75;1.90;;;17.80;99.90;;;;;;4880187;29;20196;-84
2023/07/03 11:02:12;;;;;;;5.18;1.50;;;17.80;99.90;;;;;;4878233;29;20205;-82
2023/07/03 11:04:53;;;;;;;4.53;1.70;;;17.80;99.90;;;;;;4876358;29;20193;-82
2023/07/03 11:07:28;;;;;;;6.53;1.60;;;17.70;99.90;;;;;;4861356;29;20209;-82
2023/07/03 11:10:02;;;;;;;6.97;1.95;;;17.70;99.90;;;;;;4872799;29;20221;-83
2023/07/03 11:12:51;;;;;;;7.50;2.13;;;17.80;99.90;;;;;;4881227;29;20560;-81
2023/07/03 11:15:33;;;;;;;8.32;2.17;;;17.90;99.90;;;;;;4881811;29;20197;-83
2023/07/03 11:18:05;;;;;;;7.82;1.90;;;18.00;99.90;;;;;;4878657;29;20182;-84
2023/07/03 11:20:44;;;;;;;8.98;2.03;;;18.10;99.90;;;;;;4882453;29;20599;-83
2023/07/03 11:23:22;;;;;;;10.13;2.30;;;18.20;99.90;;;;;;4878498;29;20185;-82
2023/07/03 11:26:16;;;;;;;7.97;1.98;;;18.40;99.90;;;;;;4893486;29;20712;-84
2023/07/03 11:28:49;;;;;;;9.98;2.13;;;18.60;99.90;;;;;;4878816;29;20217;-84
2023/07/03 11:31:16;;;;;;;6.85;1.90;;;18.70;99.90;;;;;;4884101;29;20190;-83
2023/07/03 11:33:43;;;;;;;8.13;2.08;;;18.90;99.90;;;;;;4871205;29;20190;-85
2023/07/03 11:36:40;;;;;;;9.00;1.80;;;19.00;99.90;;;;;;4874373;29;20189;-84
2023/07/03 11:39:24;;;;;;;5.93;1.50;;;19.00;99.90;;;;;;4875659;29;20190;-84
2023/07/03 11:41:54;;;;;;;6.90;1.90;;;19.00;99.90;;;;;;4862238;29;20317;-85
2023/07/03 11:44:41;;;;;;;6.35;1.63;;;19.10;99.90;;;;;;4869442;29;20284;-85
2023/07/03 11:47:22;;;;;;;6.35;1.50;;;19.00;99.90;;;;;;4879794;29;20212;-85
2023/07/03 11:49:57;;;;;;;10.00;4.35;;;19.10;99.90;;;;;;4875399;29;20217;-83
2023/07/03 11:52:31;;;;;;;12.43;4.57;;;19.00;99.90;;;;;;4874960;29;20184;-83
2023/07/03 11:55:04;;;;;;;5.75;1.60;;;19.00;99.90;;;;;;4870594;29;20195;-83
2023/07/03 11:57:38;;;;;;;6.03;1.75;;;19.00;99.90;;;;;;4865928;29;20250;-79
2023/07/03 12:00:27;;;;;;;9.90;1.70;;;18.90;99.90;;;;;;4869342;29;20189;-78
2023/07/03 12:03:06;;;;;;;7.47;1.60;;;18.90;99.90;;;;;;4864020;29;20189;-76
2023/07/03 12:08:36;;;;;;;9.65;1.90;;;18.90;99.90;;;;;;4860272;29;20196;-76
2023/07/03 12:11:03;;;;;;;6.30;1.70;;;19.00;99.90;;;;;;4879046;29;20217;-76
2023/07/03 12:13:36;;;;;;;9.23;1.52;;;19.00;99.90;;;;;;4877750;29;20542;-76
2023/07/03 12:16:11;;;;;;;5.90;1.70;;;19.00;99.70;;;;;;4866817;29;20643;-77
2023/07/03 12:18:37;;;;;;;8.75;1.73;;;19.00;99.50;;;;;;4876619;29;20203;-76
2023/07/03 12:21:04;;;;;;;7.85;1.73;;;19.00;99.30;;;;;;4877730;29;20178;-75
2023/07/03 12:23:32;;;;;;;9.88;1.70;;;19.10;99.30;;;;;;4878005;29;20185;-77
2023/07/03 12:26:04;;;;;;;11.88;1.77;;;19.10;99.30;;;;;;4878692;29;20214;-76
2023/07/03 12:28:30;;;;;;;6.07;1.60;;;19.10;99.10;;;;;;4876296;29;20597;-77
2023/07/03 12:31:20;;;;;;;6.57;1.70;;;19.10;99.10;;;;;;4865043;29;20193;-80
2023/07/03 12:33:55;;;;;;;8.82;1.65;;;19.10;98.90;;;;;;4857659;29;20276;-77
2023/07/03 12:36:22;;;;;;;5.53;1.55;;;19.10;98.70;;;;;;4860085;29;20181;-78
2023/07/03 12:38:47;;;;;;;7.47;1.63;;;19.10;98.60;;;;;;4862164;29;20193;-75
2023/07/03 12:41:13;;;;;;;7.50;1.77;;;19.00;98.30;;;;;;4872671;29;20535;-76
2023/07/03 12:43:43;;;;;;;9.73;2.08;;;19.00;98.20;;;;;;4876424;29;20201;-75
2023/07/03 12:46:11;;;;;;;8.60;1.70;;;19.00;98.10;;;;;;4872715;29;20266;-76
2023/07/03 12:48:37;;;;;;;8.60;1.52;;;19.00;98.00;;;;;;4877785;29;20225;-75
2023/07/03 12:51:03;;;;;;;10.23;2.10;;;19.00;98.00;;;;;;4865951;29;20197;-79
2023/07/03 12:53:34;;;;;;;8.63;1.73;;;19.00;98.00;;;;;;4863026;29;20189;-78
2023/07/03 12:56:06;;;;;;;11.38;1.95;;;19.00;97.90;;;;;;4864872;29;20260;-79
2023/07/03 12:58:33;;;;;;;8.82;2.15;;;18.90;98.00;;;;;;4877776;29;20248;-78